createdAt,value
2023-02-23T00:02:07.108Z,29.85
2023-02-23T00:04:40.040Z,29.70
2023-02-23T00:07:12.904Z,30.83
2023-02-23T00:09:43.455Z,28.92
2023-02-23T00:12:13.634Z,29.92
2023-02-23T00:14:44.095Z,29.83
2023-02-23T00:17:15.072Z,28.85
2023-02-23T00:19:46.243Z,28.73
2023-02-23T00:22:19.028Z,29.70
2023-02-23T00:24:50.248Z,30.10
2023-02-23T00:27:21.501Z,30.50
2023-02-23T00:29:52.901Z,30.63
2023-02-23T00:32:25.618Z,31.05
2023-02-23T00:34:58.031Z,32.28
2023-02-23T00:37:30.840Z,30.58
2023-02-23T00:40:00.923Z,32.28
2023-02-23T00:42:33.200Z,31.02
2023-02-23T00:45:08.575Z,31.33
2023-02-23T00:47:39.074Z,33.45
2023-02-23T00:50:12.809Z,32.63
2023-02-23T00:52:47.025Z,33.88
2023-02-23T00:55:40.785Z,33.65
2023-02-23T00:58:14.105Z,33.17
2023-02-23T01:00:47.453Z,33.03
2023-02-23T01:03:17.610Z,33.13
2023-02-23T01:05:50.001Z,34.50
2023-02-23T01:08:23.194Z,32.20
2023-02-23T01:10:57.552Z,34.17
2023-02-23T01:13:28.970Z,32.70
2023-02-23T01:15:59.131Z,35.03
2023-02-23T01:18:29.491Z,32.67
2023-02-23T01:20:59.642Z,33.85
2023-02-23T01:23:32.403Z,32.05
2023-02-23T01:26:05.124Z,34.08
2023-02-23T01:28:38.559Z,34.03
2023-02-23T01:31:12.319Z,33.50
2023-02-23T01:33:42.506Z,32.95
2023-02-23T01:36:13.119Z,34.58
2023-02-23T01:38:45.956Z,35.72
2023-02-23T01:41:16.282Z,35.25
2023-02-23T01:44:01.729Z,36.53
2023-02-23T01:46:36.026Z,34.72
2023-02-23T01:49:11.708Z,34.88
2023-02-23T01:51:48.537Z,35.13
2023-02-23T01:54:31.058Z,35.03
2023-02-23T01:57:05.950Z,34.45
2023-02-23T01:59:42.754Z,34.30
2023-02-23T02:02:14.205Z,35.78
2023-02-23T02:04:46.759Z,35.35
2023-02-23T02:07:23.433Z,35.47
2023-02-23T02:10:14.256Z,33.95
2023-02-23T02:12:47.878Z,35.63
2023-02-23T02:15:20.001Z,36.15
2023-02-23T02:18:09.705Z,37.40
2023-02-23T02:21:20.046Z,34.70
2023-02-23T02:24:55.619Z,36.63
2023-02-23T02:27:58.537Z,35.78
2023-02-23T02:31:00.691Z,35.97
2023-02-23T02:34:25.409Z,34.15
2023-02-23T02:37:45.175Z,34.17
2023-02-23T02:40:34.348Z,34.85
2023-02-23T02:43:14.741Z,32.88
2023-02-23T02:45:53.935Z,35.83
2023-02-23T02:48:41.892Z,33.47
2023-02-23T02:51:24.810Z,32.05
2023-02-23T02:54:07.317Z,31.40
2023-02-23T02:56:44.043Z,33.20
2023-02-23T02:59:32.174Z,32.53
2023-02-23T03:02:14.876Z,35.03
2023-02-23T03:04:58.032Z,34.90
2023-02-23T03:07:50.452Z,32.28
2023-02-23T03:10:50.494Z,32.83
2023-02-23T03:13:51.803Z,33.40
2023-02-23T03:16:46.721Z,33.92
2023-02-23T03:19:36.851Z,33.80
2023-02-23T03:22:34.222Z,34.30
2023-02-23T03:25:24.923Z,32.40
2023-02-23T03:28:27.855Z,30.48
2023-02-23T03:31:24.669Z,27.10
2023-02-23T03:34:18.801Z,29.25
2023-02-23T03:37:14.513Z,28.42
2023-02-23T03:40:06.794Z,29.95
2023-02-23T03:42:54.271Z,26.77
2023-02-23T03:45:43.276Z,28.48
2023-02-23T03:48:31.415Z,24.75
2023-02-23T03:51:24.372Z,24.55
2023-02-23T03:54:19.108Z,26.13
2023-02-23T03:57:08.028Z,29.40
2023-02-23T03:59:58.568Z,33.75
2023-02-23T04:02:46.411Z,38.15
2023-02-23T04:05:34.060Z,39.20
2023-02-23T04:08:24.898Z,41.05
2023-02-23T04:11:20.701Z,39.40
2023-02-23T04:13:58.744Z,40.97
2023-02-23T04:16:28.737Z,40.28
2023-02-23T04:19:02.433Z,41.43
2023-02-23T04:21:32.550Z,41.60
2023-02-23T04:24:02.583Z,40.47
2023-02-23T04:26:32.855Z,40.97
2023-02-23T04:29:02.930Z,41.67
2023-02-23T04:31:41.907Z,38.60
2023-02-23T04:34:15.229Z,37.07
2023-02-23T04:36:45.446Z,38.63
2023-02-23T04:39:15.487Z,39.05
2023-02-23T04:41:49.000Z,35.88
2023-02-23T04:44:19.404Z,38.20
2023-02-23T04:46:49.789Z,38.83
2023-02-23T04:49:22.606Z,42.42
2023-02-23T04:51:52.728Z,41.90
2023-02-23T04:54:23.026Z,40.77
2023-02-23T04:56:53.303Z,41.45
2023-02-23T04:59:25.635Z,43.40
2023-02-23T05:01:56.025Z,43.20
2023-02-23T05:04:29.033Z,45.00
2023-02-23T05:06:59.579Z,44.97
2023-02-23T05:13:19.977Z,46.67
2023-02-23T05:15:50.934Z,43.58
2023-02-23T05:18:21.841Z,46.80
2023-02-23T05:20:55.271Z,46.87
2023-02-23T05:23:26.193Z,43.25
2023-02-23T05:25:56.403Z,43.93
2023-02-23T05:28:27.105Z,43.00
2023-02-23T05:30:57.258Z,41.70
2023-02-23T05:33:27.517Z,43.10
2023-02-23T05:36:01.101Z,42.15
2023-02-23T05:38:31.455Z,41.10
2023-02-23T05:41:01.854Z,41.23
2023-02-23T05:43:32.146Z,43.42
2023-02-23T05:46:02.561Z,42.70
2023-02-23T05:48:32.695Z,41.30
2023-02-23T05:51:09.005Z,41.08
2023-02-23T05:53:40.830Z,42.77
2023-02-23T05:56:21.336Z,40.95
2023-02-23T05:58:51.716Z,40.97
2023-02-23T06:01:23.175Z,39.15
2023-02-23T06:03:54.434Z,37.97
2023-02-23T06:06:28.530Z,39.88
2023-02-23T06:08:59.596Z,37.53
2023-02-23T06:11:31.158Z,39.70
2023-02-23T06:14:02.211Z,39.38
2023-02-23T06:16:32.393Z,38.03
2023-02-23T06:19:02.775Z,37.70
2023-02-23T06:21:37.611Z,37.00
2023-02-23T06:24:08.783Z,38.85
2023-02-23T06:26:38.944Z,39.13
2023-02-23T06:29:09.301Z,40.60
2023-02-23T06:31:39.589Z,39.50
2023-02-23T06:34:09.830Z,38.47
2023-02-23T06:36:42.524Z,39.33
2023-02-23T06:39:17.378Z,40.95
2023-02-23T06:41:47.455Z,38.30
2023-02-23T06:44:17.679Z,39.65
2023-02-23T06:46:47.879Z,38.78
2023-02-23T06:49:18.111Z,40.38
2023-02-23T06:51:50.852Z,38.50
2023-02-23T06:54:21.390Z,39.63
2023-02-23T06:56:51.512Z,39.83
2023-02-23T06:59:21.901Z,39.50
2023-02-23T07:01:52.161Z,39.90
2023-02-23T07:04:22.429Z,39.90
2023-02-23T07:06:55.190Z,38.03
2023-02-23T07:09:25.610Z,37.63
2023-02-23T07:11:56.557Z,36.53
2023-02-23T07:14:27.447Z,36.25
2023-02-23T07:16:58.293Z,35.13
2023-02-23T07:19:28.794Z,35.63
2023-02-23T07:22:01.642Z,35.08
2023-02-23T07:24:31.829Z,35.08
2023-02-23T07:27:01.938Z,34.63
2023-02-23T07:29:32.130Z,37.33
2023-02-23T07:32:02.744Z,35.67
2023-02-23T07:34:32.969Z,36.55
2023-02-23T07:37:06.065Z,36.88
2023-02-23T07:39:36.172Z,35.78
2023-02-23T07:42:07.426Z,36.80
2023-02-23T07:44:38.190Z,37.00
2023-02-23T07:47:08.398Z,36.75
2023-02-23T07:49:38.617Z,36.73
2023-02-23T07:52:11.331Z,35.55
2023-02-23T07:54:41.474Z,36.25
2023-02-23T07:57:12.358Z,36.22
2023-02-23T07:59:44.926Z,36.20
2023-02-23T08:02:16.739Z,36.55
2023-02-23T08:04:48.365Z,36.05
2023-02-23T08:07:21.148Z,36.25
2023-02-23T08:09:51.985Z,36.00
2023-02-23T08:12:22.180Z,36.60
2023-02-23T08:14:53.319Z,34.83
2023-02-23T08:17:27.525Z,36.85
2023-02-23T08:19:57.707Z,36.28
2023-02-23T08:22:37.852Z,34.67
2023-02-23T08:25:14.076Z,35.47
2023-02-23T08:27:44.419Z,35.03
2023-02-23T08:30:17.354Z,35.63
2023-02-23T08:32:47.911Z,35.58
2023-02-23T08:35:20.201Z,32.40
2023-02-23T08:37:53.299Z,36.17
2023-02-23T08:40:23.508Z,44.90
2023-02-23T08:42:54.261Z,36.72
2023-02-23T08:45:29.414Z,34.10
2023-02-23T08:48:00.031Z,34.13
2023-02-23T08:50:30.235Z,32.85
2023-02-23T08:53:07.533Z,35.88
2023-02-23T08:55:38.180Z,32.05
2023-02-23T08:58:10.786Z,34.60
2023-02-23T09:00:41.399Z,28.05
2023-02-23T09:03:14.058Z,27.55
2023-02-23T09:05:44.317Z,29.05
2023-02-23T09:08:18.538Z,33.25
2023-02-23T09:10:48.660Z,31.65
2023-02-23T09:13:19.770Z,29.67
2023-02-23T09:15:50.909Z,29.25
2023-02-23T09:18:27.533Z,28.90
2023-02-23T09:20:58.001Z,28.02
2023-02-23T09:23:32.192Z,31.65
2023-02-23T09:26:06.772Z,26.80
2023-02-23T09:28:40.681Z,27.48
2023-02-23T09:31:14.176Z,30.17
2023-02-23T09:33:46.915Z,26.77
2023-02-23T09:36:20.186Z,25.33
2023-02-23T09:38:57.231Z,26.95
2023-02-23T09:42:22.936Z,28.25
2023-02-23T09:45:24.497Z,29.63
2023-02-23T09:48:12.645Z,30.92
2023-02-23T09:50:53.606Z,27.73
2023-02-23T09:53:43.665Z,26.60
2023-02-23T09:56:33.144Z,31.92
2023-02-23T09:59:04.618Z,30.40
2023-02-23T10:02:00.091Z,24.67
2023-02-23T10:04:34.190Z,25.80
2023-02-23T10:07:14.989Z,24.77
2023-02-23T10:10:13.214Z,25.52
2023-02-23T10:12:56.966Z,25.42
2023-02-23T10:15:37.614Z,25.25
2023-02-23T10:18:44.964Z,28.63
2023-02-23T10:21:35.377Z,25.10
2023-02-23T10:24:14.003Z,25.55
2023-02-23T10:26:50.634Z,24.63
2023-02-23T10:29:33.962Z,25.95
2023-02-23T10:32:10.906Z,24.63
2023-02-23T10:34:43.043Z,24.25
2023-02-23T10:37:16.840Z,23.95
2023-02-23T10:39:49.997Z,23.08
2023-02-23T10:42:28.943Z,23.67
2023-02-23T10:45:05.283Z,24.70
2023-02-23T10:47:39.152Z,24.20
2023-02-23T10:50:15.989Z,22.80
2023-02-23T10:52:50.679Z,21.92
2023-02-23T10:55:30.214Z,23.27
2023-02-23T10:58:16.998Z,21.85
2023-02-23T11:01:08.891Z,22.15
2023-02-23T11:03:45.760Z,21.52
2023-02-23T11:06:33.769Z,21.55
2023-02-23T11:09:43.772Z,21.92
2023-02-23T11:12:25.530Z,20.35
2023-02-23T11:14:58.306Z,22.88
2023-02-23T11:17:38.126Z,20.50
2023-02-23T11:20:25.300Z,20.20
2023-02-23T11:22:59.052Z,21.63
2023-02-23T11:25:35.651Z,20.25
2023-02-23T11:28:06.106Z,22.13
2023-02-23T11:30:47.254Z,22.10
2023-02-23T11:33:29.666Z,21.52
2023-02-23T11:36:02.763Z,23.13
2023-02-23T11:38:35.540Z,23.13
2023-02-23T11:41:20.399Z,23.15
2023-02-23T11:43:54.890Z,22.50
2023-02-23T11:46:32.063Z,22.42
2023-02-23T11:49:09.710Z,23.05
2023-02-23T11:51:44.567Z,22.13
2023-02-23T11:54:31.398Z,22.48
2023-02-23T11:57:02.760Z,21.77
2023-02-23T11:59:38.285Z,22.67
2023-02-23T12:02:25.179Z,22.80
2023-02-23T12:05:10.180Z,23.98
2023-02-23T12:07:44.270Z,21.33
2023-02-23T12:10:24.507Z,24.58
2023-02-23T12:13:07.441Z,22.60
2023-02-23T12:15:50.748Z,23.30
2023-02-23T12:18:47.192Z,20.17
2023-02-23T12:21:38.203Z,22.00
2023-02-23T12:24:20.976Z,22.65
2023-02-23T12:27:01.664Z,20.35
2023-02-23T12:29:45.072Z,20.00
2023-02-23T12:32:23.389Z,18.83
2023-02-23T12:35:01.604Z,19.08
2023-02-23T12:37:42.861Z,21.35
2023-02-23T12:40:20.599Z,23.70
2023-02-23T12:43:04.632Z,22.73
2023-02-23T12:45:44.710Z,22.02
2023-02-23T12:48:38.612Z,22.67
2023-02-23T12:51:25.234Z,21.95
2023-02-23T12:53:58.071Z,22.58
2023-02-23T12:56:53.628Z,18.50
2023-02-23T13:00:23.828Z,17.65
2023-02-23T13:03:22.223Z,18.67
2023-02-23T13:06:05.215Z,18.45
2023-02-23T13:09:09.589Z,18.38
2023-02-23T13:12:17.679Z,18.83
2023-02-23T13:15:01.786Z,20.77
2023-02-23T13:17:49.869Z,20.55
2023-02-23T13:20:27.755Z,20.95
2023-02-23T13:23:14.208Z,19.45
2023-02-23T13:25:56.151Z,18.13
2023-02-23T13:28:52.164Z,18.17
2023-02-23T13:31:29.866Z,20.70
2023-02-23T13:34:03.609Z,19.52
2023-02-23T13:36:37.491Z,18.67
2023-02-23T13:39:45.366Z,24.10
2023-02-23T13:42:35.641Z,18.08
2023-02-23T13:45:44.098Z,18.67
2023-02-23T13:48:47.326Z,17.55
2023-02-23T13:51:41.472Z,16.37
2023-02-23T13:54:30.230Z,18.77
2023-02-23T13:57:05.261Z,20.60
2023-02-23T13:59:46.095Z,20.95
2023-02-23T14:02:43.951Z,24.40
2023-02-23T14:05:25.098Z,21.13
2023-02-23T14:08:02.393Z,23.25
2023-02-23T14:10:41.488Z,21.48
2023-02-23T14:13:31.262Z,21.65
2023-02-23T14:16:24.227Z,22.87
2023-02-23T14:19:40.035Z,23.52
2023-02-23T14:22:17.814Z,23.42
2023-02-23T14:24:48.224Z,24.50
2023-02-23T14:27:34.142Z,26.17
2023-02-23T14:30:25.470Z,25.77
2023-02-23T14:33:21.186Z,25.55
2023-02-23T14:35:54.682Z,23.27
2023-02-23T14:38:47.589Z,24.25
2023-02-23T14:41:23.499Z,24.80
2023-02-23T14:43:58.035Z,24.45
2023-02-23T14:46:30.738Z,24.13
2023-02-23T14:49:05.316Z,24.53
2023-02-23T14:51:45.013Z,24.40
2023-02-23T14:54:33.845Z,26.98
2023-02-23T14:57:22.776Z,25.80
2023-02-23T15:00:05.478Z,29.35
2023-02-23T15:02:45.853Z,25.38
2023-02-23T15:05:28.847Z,27.30
2023-02-23T15:08:07.707Z,30.75
2023-02-23T15:10:41.858Z,25.33
2023-02-23T15:13:19.114Z,26.48
2023-02-23T15:15:49.809Z,26.08
2023-02-23T15:18:29.435Z,22.90
2023-02-23T15:21:00.027Z,23.08
2023-02-23T15:23:39.906Z,20.90
2023-02-23T15:26:24.438Z,23.10
2023-02-23T15:28:58.195Z,20.92
2023-02-23T15:31:35.750Z,19.15
2023-02-23T15:34:05.979Z,21.33
2023-02-23T15:36:41.356Z,20.17
2023-02-23T15:39:22.282Z,23.15
2023-02-23T15:41:53.387Z,26.70
2023-02-23T15:44:32.206Z,19.27
2023-02-23T15:47:19.481Z,31.42
2023-02-23T15:49:50.555Z,23.77
2023-02-23T15:52:27.428Z,44.63
2023-02-23T15:55:06.447Z,28.10
2023-02-23T15:57:49.939Z,39.03
2023-02-23T16:00:32.714Z,31.00
2023-02-23T16:03:06.236Z,26.45
2023-02-23T16:05:47.079Z,82.28
2023-02-23T16:08:27.271Z,51.33
2023-02-23T16:11:12.094Z,31.20
2023-02-23T16:13:46.881Z,34.08
2023-02-23T16:16:25.675Z,20.27
2023-02-23T16:19:01.807Z,22.88
2023-02-23T16:21:34.884Z,17.83
2023-02-23T16:24:13.426Z,23.57
2023-02-23T16:26:53.798Z,21.40
2023-02-23T16:29:41.545Z,21.77
2023-02-23T16:32:23.685Z,20.63
2023-02-23T16:35:02.029Z,19.43
2023-02-23T16:37:32.207Z,19.50
2023-02-23T16:40:05.493Z,18.27
2023-02-23T16:42:38.728Z,20.37
2023-02-23T16:45:17.746Z,21.47
2023-02-23T16:47:50.365Z,18.47
2023-02-23T16:50:26.030Z,19.63
2023-02-23T16:52:57.857Z,19.30
2023-02-23T16:55:31.101Z,22.83
2023-02-23T16:58:10.432Z,21.93
2023-02-23T17:00:41.800Z,21.60
2023-02-23T17:03:21.264Z,20.37
2023-02-23T17:05:51.518Z,20.73
2023-02-23T17:08:26.271Z,19.57
2023-02-23T17:10:57.930Z,21.37
2023-02-23T17:13:34.712Z,20.15
2023-02-23T17:16:09.447Z,19.50
2023-02-23T17:18:44.991Z,21.03
2023-02-23T17:21:23.873Z,21.47
2023-02-23T17:24:02.698Z,20.27
2023-02-23T17:26:32.890Z,22.03
2023-02-23T17:29:06.264Z,22.35
2023-02-23T17:31:38.090Z,23.77
2023-02-23T17:34:09.041Z,22.93
2023-02-23T17:36:39.179Z,22.07
2023-02-23T17:39:10.024Z,22.37
2023-02-23T17:41:40.205Z,23.23
2023-02-23T17:44:13.313Z,22.17
2023-02-23T17:46:43.716Z,22.10
2023-02-23T17:49:13.840Z,23.40
2023-02-23T17:51:44.948Z,22.90
2023-02-23T17:54:15.986Z,21.77
2023-02-23T17:56:48.020Z,20.88
2023-02-23T17:59:20.781Z,23.57
2023-02-23T18:01:58.777Z,22.37
2023-02-23T18:04:29.061Z,22.23
2023-02-23T18:06:59.834Z,23.27
2023-02-23T18:09:30.712Z,20.75
2023-02-23T18:12:00.908Z,21.47
2023-02-23T18:14:33.702Z,27.50
2023-02-23T18:17:03.985Z,23.23
2023-02-23T18:19:34.742Z,23.30
2023-02-23T18:22:04.881Z,25.57
2023-02-23T18:24:36.298Z,26.27
2023-02-23T18:27:07.510Z,24.80
2023-02-23T18:29:40.238Z,22.67
2023-02-23T18:32:11.380Z,20.93
2023-02-23T18:34:41.828Z,21.80
2023-02-23T18:37:11.919Z,28.50
2023-02-23T18:39:42.132Z,30.37
2023-02-23T18:42:12.255Z,22.03
2023-02-23T18:44:45.128Z,24.00
2023-02-23T18:47:15.357Z,22.40
2023-02-23T18:49:45.736Z,25.73
2023-02-23T18:52:15.951Z,26.77
2023-02-23T18:54:46.161Z,25.77
2023-02-23T18:57:16.335Z,23.60
2023-02-23T18:59:49.180Z,22.60
2023-02-23T19:02:19.353Z,22.90
2023-02-23T19:04:49.501Z,23.87
2023-02-23T19:07:20.858Z,24.23
2023-02-23T19:09:51.516Z,23.60
2023-02-23T19:12:24.273Z,24.87
2023-02-23T19:14:57.641Z,24.50
2023-02-23T19:17:28.038Z,23.87
2023-02-23T19:20:00.555Z,25.20
2023-02-23T19:22:32.336Z,24.43
2023-02-23T19:25:02.681Z,23.50
2023-02-23T19:27:34.422Z,25.47
2023-02-23T19:30:10.282Z,24.93
2023-02-23T19:32:42.382Z,26.67
2023-02-23T19:35:17.280Z,25.50
2023-02-23T19:37:51.902Z,25.10
2023-02-23T19:40:29.226Z,23.53
2023-02-23T19:42:59.658Z,24.57
2023-02-23T19:45:32.569Z,23.93
2023-02-23T19:48:02.719Z,23.27
2023-02-23T19:50:33.081Z,25.43
2023-02-23T19:53:03.223Z,26.53
2023-02-23T19:55:33.582Z,25.90
2023-02-23T19:58:03.726Z,30.73
2023-02-23T20:00:36.775Z,26.17
2023-02-23T20:03:07.102Z,25.47
2023-02-23T20:05:44.221Z,24.97
2023-02-23T20:08:19.296Z,23.23
2023-02-23T20:10:49.427Z,27.37
2023-02-23T20:13:21.423Z,24.70
2023-02-23T20:16:03.129Z,22.27
2023-02-23T20:18:33.641Z,40.57
2023-02-23T20:21:03.856Z,28.00
2023-02-23T20:23:35.736Z,21.50
2023-02-23T20:26:09.241Z,22.70
2023-02-23T20:28:40.157Z,22.27
2023-02-23T20:31:21.171Z,22.90
2023-02-23T20:33:52.197Z,23.70
2023-02-23T20:36:25.141Z,23.63
2023-02-23T20:38:55.846Z,22.00
2023-02-23T20:41:28.026Z,23.43
2023-02-23T20:44:00.984Z,22.27
2023-02-23T20:46:34.342Z,22.93
2023-02-23T20:49:04.492Z,24.20
2023-02-23T20:51:34.602Z,22.93
2023-02-23T20:54:04.760Z,23.63
2023-02-23T20:56:34.834Z,24.03
2023-02-23T20:59:11.114Z,22.00
2023-02-23T21:01:46.260Z,21.60
2023-02-23T21:04:16.431Z,21.07
2023-02-23T21:06:47.968Z,19.03
2023-02-23T21:09:22.332Z,21.17
2023-02-23T21:11:52.523Z,20.00
2023-02-23T21:17:02.705Z,19.80
2023-02-23T21:19:32.883Z,19.10
2023-02-23T21:22:03.008Z,23.50
2023-02-23T21:24:33.980Z,22.87
2023-02-23T21:27:05.688Z,19.23
2023-02-23T21:29:36.512Z,19.97
2023-02-23T21:32:10.725Z,18.77
2023-02-23T21:34:40.955Z,16.23
2023-02-23T21:37:11.515Z,16.97
2023-02-23T21:39:41.713Z,17.13
2023-02-23T21:42:11.826Z,16.10
2023-02-23T21:44:44.478Z,15.77
2023-02-23T21:47:17.491Z,16.83
2023-02-23T21:49:49.465Z,16.03
2023-02-23T21:52:22.469Z,17.77
2023-02-23T21:54:53.330Z,17.27
2023-02-23T21:57:26.284Z,17.80
2023-02-23T21:59:57.220Z,17.73
2023-02-23T22:02:30.575Z,18.63
2023-02-23T22:05:01.390Z,18.17
2023-02-23T22:07:34.932Z,17.53
2023-02-23T22:10:06.244Z,16.50
2023-02-23T22:12:36.383Z,16.30
2023-02-23T22:15:10.440Z,16.43
2023-02-23T22:17:43.191Z,15.30
2023-02-23T22:20:20.242Z,16.13
2023-02-23T22:22:51.165Z,14.23
2023-02-23T22:25:22.953Z,14.90
2023-02-23T22:27:53.069Z,13.77
2023-02-23T22:30:23.371Z,14.13
2023-02-23T22:32:56.402Z,14.57
2023-02-23T22:35:26.612Z,12.90
2023-02-23T22:37:56.717Z,13.80
2023-02-23T22:40:27.961Z,11.13
2023-02-23T22:42:59.306Z,11.53
2023-02-23T22:45:30.468Z,12.40
2023-02-23T22:48:06.246Z,12.17
2023-02-23T22:50:36.941Z,11.93
2023-02-23T22:53:07.750Z,11.87
2023-02-23T22:55:38.382Z,11.63
2023-02-23T22:58:10.843Z,12.10
2023-02-23T23:00:40.964Z,11.13
2023-02-23T23:03:16.748Z,11.63
2023-02-23T23:05:52.401Z,11.27
2023-02-23T23:08:22.478Z,12.07
2023-02-23T23:10:52.725Z,12.13
2023-02-23T23:13:25.878Z,12.03
2023-02-23T23:16:07.470Z,11.40
2023-02-23T23:18:43.483Z,11.93
2023-02-23T23:21:16.011Z,12.33
2023-02-23T23:23:48.105Z,12.00
2023-02-23T23:26:23.823Z,12.17
2023-02-23T23:28:58.327Z,12.03
2023-02-23T23:31:35.059Z,11.70
2023-02-23T23:34:12.019Z,10.80
2023-02-23T23:36:49.474Z,12.40
2023-02-23T23:39:22.514Z,12.33
2023-02-23T23:41:53.736Z,13.17
2023-02-23T23:44:29.186Z,12.57
2023-02-23T23:46:59.939Z,12.40
2023-02-23T23:49:35.631Z,13.17
2023-02-23T23:52:06.396Z,12.63
2023-02-23T23:54:44.604Z,12.60
2023-02-23T23:57:14.989Z,14.53
2023-02-23T23:59:46.530Z,14.87
